createdAt,value
2018-09-25T00:01:52.171Z,8.07
2018-09-25T00:04:26.173Z,7.97
2018-09-25T00:07:00.008Z,7.90
2018-09-25T00:09:33.818Z,7.76
2018-09-25T00:12:07.619Z,7.66
2018-09-25T00:14:41.455Z,7.53
2018-09-25T00:17:15.247Z,7.53
2018-09-25T00:19:49.145Z,7.58
2018-09-25T00:22:22.878Z,7.61
2018-09-25T00:24:56.615Z,7.58
2018-09-25T00:27:30.318Z,7.68
2018-09-25T00:30:04.142Z,7.49
2018-09-25T00:32:37.818Z,7.50
2018-09-25T00:35:11.618Z,7.51
2018-09-25T00:37:45.258Z,7.38
2018-09-25T00:40:19.018Z,7.23
2018-09-25T00:42:52.734Z,7.12
2018-09-25T00:45:26.609Z,7.07
2018-09-25T00:48:00.263Z,6.89
2018-09-25T00:50:34.092Z,6.98
2018-09-25T00:53:07.891Z,6.86
2018-09-25T00:55:41.690Z,7.20
2018-09-25T00:58:15.362Z,6.79
2018-09-25T01:00:49.139Z,6.74
2018-09-25T01:03:23.019Z,6.75
2018-09-25T01:05:56.778Z,6.73
2018-09-25T01:08:30.481Z,6.43
2018-09-25T01:11:04.275Z,6.54
2018-09-25T01:13:37.982Z,6.46
2018-09-25T01:16:11.732Z,6.50
2018-09-25T01:18:45.491Z,6.47
2018-09-25T01:21:19.362Z,6.40
2018-09-25T01:23:53.118Z,6.40
2018-09-25T01:26:26.930Z,6.40
2018-09-25T01:29:00.710Z,6.48
2018-09-25T01:31:34.454Z,6.60
2018-09-25T01:34:08.097Z,6.44
2018-09-25T01:36:42.114Z,6.49
2018-09-25T01:39:15.803Z,6.67
2018-09-25T01:41:49.566Z,6.52
2018-09-25T01:44:23.108Z,6.52
2018-09-25T01:46:57.014Z,6.41
2018-09-25T01:49:30.790Z,6.45
2018-09-25T01:52:04.523Z,6.51
2018-09-25T01:54:38.327Z,6.44
2018-09-25T01:57:12.127Z,6.46
2018-09-25T01:59:45.991Z,6.24
2018-09-25T02:02:19.886Z,6.22
2018-09-25T02:04:53.515Z,6.28
2018-09-25T02:07:27.461Z,6.57
2018-09-25T02:10:01.141Z,6.42
2018-09-25T02:12:35.076Z,6.21
2018-09-25T02:15:08.843Z,6.08
2018-09-25T02:17:42.571Z,5.99
2018-09-25T02:20:16.287Z,5.94
2018-09-25T02:22:50.096Z,5.74
2018-09-25T02:25:23.807Z,5.79
2018-09-25T02:27:57.387Z,5.93
2018-09-25T02:30:31.123Z,6.10
2018-09-25T02:33:05.115Z,5.88
2018-09-25T02:35:38.911Z,5.78
2018-09-25T02:38:12.947Z,5.84
2018-09-25T02:40:46.690Z,5.61
2018-09-25T02:43:20.779Z,5.57
2018-09-25T02:45:54.554Z,5.53
2018-09-25T02:48:28.438Z,5.64
2018-09-25T02:51:02.159Z,5.51
2018-09-25T02:53:35.670Z,5.32
2018-09-25T02:56:09.647Z,5.29
2018-09-25T02:58:43.599Z,5.34
2018-09-25T03:01:17.311Z,5.33
2018-09-25T03:03:51.214Z,5.39
2018-09-25T03:06:24.994Z,5.30
2018-09-25T03:08:58.818Z,5.33
2018-09-25T03:11:32.592Z,5.40
2018-09-25T03:14:06.331Z,5.32
2018-09-25T03:16:40.123Z,5.43
2018-09-25T03:19:13.994Z,5.45
2018-09-25T03:21:47.662Z,5.48
2018-09-25T03:24:21.416Z,5.35
2018-09-25T03:26:55.037Z,5.23
2018-09-25T03:29:28.842Z,5.34
2018-09-25T03:32:02.599Z,5.48
2018-09-25T03:34:36.562Z,5.37
2018-09-25T03:37:10.211Z,5.48
2018-09-25T03:39:43.967Z,5.36
2018-09-25T03:42:17.827Z,5.41
2018-09-25T03:44:51.631Z,5.19
2018-09-25T03:47:25.419Z,5.09
2018-09-25T03:49:59.259Z,5.14
2018-09-25T03:52:32.952Z,5.07
2018-09-25T03:55:06.630Z,4.97
2018-09-25T03:57:40.407Z,4.92
2018-09-25T04:00:14.054Z,4.92
2018-09-25T04:02:47.791Z,4.69
2018-09-25T04:05:21.488Z,4.86
2018-09-25T04:07:55.255Z,4.87
2018-09-25T04:10:29.199Z,4.77
2018-09-25T04:13:03.007Z,4.68
2018-09-25T04:15:36.827Z,4.73
2018-09-25T04:18:10.419Z,4.72
2018-09-25T04:20:44.171Z,4.63
2018-09-25T04:23:17.978Z,4.61
2018-09-25T04:25:51.793Z,4.51
2018-09-25T04:28:25.444Z,4.55
2018-09-25T04:30:59.190Z,4.48
2018-09-25T04:33:32.938Z,4.55
2018-09-25T04:36:06.803Z,4.58
2018-09-25T04:38:40.531Z,4.56
2018-09-25T04:41:14.314Z,4.56
2018-09-25T04:43:47.859Z,4.65
2018-09-25T04:46:21.795Z,4.66
2018-09-25T04:48:55.542Z,4.51
2018-09-25T04:51:29.477Z,4.53
2018-09-25T04:54:03.266Z,4.51
2018-09-25T04:56:37.038Z,4.58
2018-09-25T04:59:10.851Z,4.55
2018-09-25T05:01:44.604Z,4.71
2018-09-25T05:04:18.230Z,4.70
2018-09-25T05:06:52.103Z,4.60
2018-09-25T05:09:25.691Z,4.59
2018-09-25T05:11:59.554Z,4.60
2018-09-25T05:14:33.409Z,4.61
2018-09-25T05:17:07.382Z,4.50
2018-09-25T05:19:41.047Z,4.48
2018-09-25T05:22:14.698Z,4.57
2018-09-25T05:24:48.594Z,4.62
2018-09-25T05:27:22.427Z,4.74
2018-09-25T05:29:56.101Z,4.74
2018-09-25T05:32:30.000Z,4.85
2018-09-25T05:35:03.783Z,4.91
2018-09-25T05:37:37.506Z,4.89
2018-09-25T05:40:11.187Z,4.69
2018-09-25T05:42:45.341Z,4.79
2018-09-25T05:45:18.909Z,4.85
2018-09-25T05:47:52.875Z,4.84
2018-09-25T05:50:26.636Z,4.88
2018-09-25T05:53:00.735Z,4.88
2018-09-25T05:55:34.519Z,4.83
2018-09-25T05:58:08.389Z,4.90
2018-09-25T06:00:42.186Z,5.23
2018-09-25T06:03:16.090Z,5.28
2018-09-25T06:05:49.664Z,5.35
2018-09-25T06:08:23.524Z,5.32
2018-09-25T06:10:57.215Z,5.29
2018-09-25T06:13:31.001Z,5.33
2018-09-25T06:16:04.792Z,5.39
2018-09-25T06:18:39.163Z,5.50
2018-09-25T06:21:12.879Z,5.53
2018-09-25T06:23:46.867Z,5.73
2018-09-25T06:26:20.662Z,5.82
2018-09-25T06:28:54.427Z,5.96
2018-09-25T06:31:28.198Z,6.08
2018-09-25T06:34:02.435Z,5.96
2018-09-25T06:36:36.035Z,6.15
2018-09-25T06:39:11.667Z,6.19
2018-09-25T06:41:45.383Z,6.34
2018-09-25T06:44:19.466Z,6.32
2018-09-25T06:46:53.266Z,6.34
2018-09-25T06:49:27.196Z,6.39
2018-09-25T06:52:00.923Z,6.49
2018-09-25T06:54:35.037Z,6.66
2018-09-25T06:57:08.855Z,6.83
2018-09-25T06:59:42.886Z,7.10
2018-09-25T07:02:16.527Z,7.08
2018-09-25T07:04:50.615Z,7.21
2018-09-25T07:07:24.394Z,7.26
2018-09-25T07:09:58.176Z,7.15
2018-09-25T07:12:31.966Z,7.28
2018-09-25T07:15:05.712Z,7.92
2018-09-25T07:17:39.636Z,8.12
2018-09-25T07:20:13.630Z,7.97
2018-09-25T07:22:47.385Z,7.82
2018-09-25T07:25:21.415Z,7.71
2018-09-25T07:27:55.228Z,7.94
2018-09-25T07:30:29.059Z,7.89
2018-09-25T07:33:02.840Z,7.91
2018-09-25T07:35:36.758Z,7.91
2018-09-25T07:38:10.477Z,8.26
2018-09-25T07:40:44.127Z,8.16
2018-09-25T07:43:17.725Z,8.46
2018-09-25T07:45:51.390Z,8.66
2018-09-25T07:48:25.231Z,8.61
2018-09-25T07:50:59.070Z,8.74
2018-09-25T07:53:32.783Z,9.00
2018-09-25T07:56:06.546Z,9.17
2018-09-25T07:58:40.374Z,9.12
2018-09-25T08:01:14.223Z,9.39
2018-09-25T08:03:48.062Z,9.31
2018-09-25T08:06:22.067Z,9.28
2018-09-25T08:08:55.764Z,9.45
2018-09-25T08:11:29.545Z,9.57
2018-09-25T08:14:03.338Z,9.66
2018-09-25T08:16:37.243Z,9.89
2018-09-25T08:19:11.130Z,9.58
2018-09-25T08:21:44.947Z,10.09
2018-09-25T08:24:18.771Z,10.18
2018-09-25T08:26:52.723Z,10.37
2018-09-25T08:29:26.579Z,10.53
2018-09-25T08:32:00.122Z,10.46
2018-09-25T08:34:33.795Z,10.64
2018-09-25T08:37:07.791Z,10.94
2018-09-25T08:39:41.739Z,10.66
2018-09-25T08:42:15.868Z,10.82
2018-09-25T08:44:49.694Z,10.77
2018-09-25T08:47:23.367Z,10.93
2018-09-25T08:49:57.208Z,11.38
2018-09-25T08:52:31.011Z,11.12
2018-09-25T08:55:04.751Z,11.27
2018-09-25T08:57:38.574Z,11.46
2018-09-25T09:00:12.251Z,11.56
2018-09-25T09:02:46.383Z,11.96
2018-09-25T09:05:20.107Z,11.73
2018-09-25T09:07:54.140Z,11.78
2018-09-25T09:10:27.990Z,11.96
2018-09-25T09:13:01.833Z,12.33
2018-09-25T09:15:35.475Z,12.03
2018-09-25T09:18:09.411Z,11.97
2018-09-25T09:20:43.310Z,11.91
2018-09-25T09:23:17.072Z,12.02
2018-09-25T09:25:50.883Z,12.09
2018-09-25T09:28:24.783Z,12.46
2018-09-25T09:30:58.491Z,12.38
2018-09-25T09:33:32.335Z,12.48
2018-09-25T09:36:06.103Z,12.47
2018-09-25T09:38:40.285Z,12.49
2018-09-25T09:41:13.983Z,12.79
2018-09-25T09:43:47.808Z,12.77
2018-09-25T09:46:21.422Z,13.01
2018-09-25T09:48:55.447Z,13.31
2018-09-25T09:51:29.131Z,13.09
2018-09-25T09:54:02.917Z,13.21
2018-09-25T09:56:36.701Z,13.13
2018-09-25T09:59:10.851Z,13.20
2018-09-25T10:01:44.750Z,13.24
2018-09-25T10:04:18.673Z,13.29
2018-09-25T10:06:52.613Z,13.56
2018-09-25T10:09:26.434Z,13.48
2018-09-25T10:12:00.319Z,13.47
2018-09-25T10:14:34.343Z,13.67
2018-09-25T10:17:08.235Z,13.23
2018-09-25T10:19:42.303Z,13.23
2018-09-25T10:22:16.107Z,13.46
2018-09-25T10:24:49.854Z,13.48
2018-09-25T10:27:23.530Z,13.50
2018-09-25T10:29:57.059Z,13.62
2018-09-25T10:32:30.855Z,13.35
2018-09-25T10:35:04.729Z,13.48
2018-09-25T10:37:38.414Z,13.73
2018-09-25T10:40:12.527Z,13.63
2018-09-25T10:42:46.170Z,14.03
2018-09-25T10:45:19.840Z,13.77
2018-09-25T10:47:53.625Z,13.95
2018-09-25T10:50:27.439Z,14.05
2018-09-25T10:53:01.085Z,13.79
2018-09-25T10:55:34.842Z,13.91
2018-09-25T10:58:08.525Z,14.21
2018-09-25T11:00:42.238Z,14.37
2018-09-25T11:03:16.353Z,14.47
2018-09-25T11:05:50.176Z,14.42
2018-09-25T11:08:23.784Z,14.14
2018-09-25T11:10:57.641Z,14.14
2018-09-25T11:13:31.213Z,14.28
2018-09-25T11:16:05.083Z,14.62
2018-09-25T11:18:38.887Z,14.46
2018-09-25T11:21:12.706Z,14.32
2018-09-25T11:23:46.463Z,14.58
2018-09-25T11:26:20.178Z,14.68
2018-09-25T11:28:53.890Z,14.50
2018-09-25T11:31:27.750Z,14.91
2018-09-25T11:34:01.406Z,14.74
2018-09-25T11:36:35.151Z,14.66
2018-09-25T11:39:08.951Z,14.74
2018-09-25T11:41:42.719Z,15.02
2018-09-25T11:44:16.423Z,14.83
2018-09-25T11:46:50.601Z,14.47
2018-09-25T11:49:24.218Z,14.57
2018-09-25T11:51:58.126Z,14.49
2018-09-25T11:54:31.822Z,14.51
2018-09-25T11:57:05.582Z,14.61
2018-09-25T11:59:39.280Z,14.86
2018-09-25T12:02:13.079Z,14.89
2018-09-25T12:04:46.814Z,15.02
2018-09-25T12:07:20.897Z,15.07
2018-09-25T12:09:54.554Z,15.18
2018-09-25T12:12:28.311Z,14.77
2018-09-25T12:15:02.025Z,14.44
2018-09-25T12:17:35.929Z,14.53
2018-09-25T12:20:09.722Z,14.67
2018-09-25T12:22:43.574Z,14.90
2018-09-25T12:25:17.271Z,14.96
2018-09-25T12:27:51.290Z,14.94
2018-09-25T12:30:25.194Z,15.25
2018-09-25T12:32:59.020Z,14.98
2018-09-25T12:35:32.599Z,14.98
2018-09-25T12:38:06.495Z,14.94
2018-09-25T12:40:40.276Z,14.97
2018-09-25T12:43:14.307Z,15.03
2018-09-25T12:45:48.171Z,15.15
2018-09-25T12:48:21.888Z,15.24
2018-09-25T12:50:55.639Z,15.38
2018-09-25T12:53:29.411Z,15.44
2018-09-25T12:56:03.203Z,15.52
2018-09-25T12:58:37.167Z,15.39
2018-09-25T13:01:10.891Z,15.49
2018-09-25T13:03:44.764Z,15.60
2018-09-25T13:06:18.346Z,15.23
2018-09-25T13:08:52.295Z,15.20
2018-09-25T13:11:26.844Z,15.49
2018-09-25T13:14:00.666Z,15.28
2018-09-25T13:16:34.963Z,15.30
2018-09-25T13:19:08.950Z,15.60
2018-09-25T13:21:42.704Z,15.32
2018-09-25T13:24:16.226Z,15.44
2018-09-25T13:26:50.031Z,15.41
2018-09-25T13:29:23.659Z,15.44
2018-09-25T13:31:57.462Z,15.36
2018-09-25T13:34:31.231Z,15.33
2018-09-25T13:37:04.951Z,15.43
2018-09-25T13:39:38.738Z,15.53
2018-09-25T13:42:12.603Z,15.17
2018-09-25T13:44:47.400Z,15.32
2018-09-25T13:47:21.199Z,15.40
2018-09-25T13:49:54.927Z,15.44
2018-09-25T13:52:28.743Z,15.57
2018-09-25T13:55:02.500Z,15.78
2018-09-25T13:57:36.255Z,15.69
2018-09-25T14:00:10.322Z,15.72
2018-09-25T14:02:44.027Z,15.49
2018-09-25T14:05:17.857Z,15.80
2018-09-25T14:07:51.527Z,15.48
2018-09-25T14:10:25.403Z,15.41
2018-09-25T14:12:59.078Z,15.45
2018-09-25T14:15:33.496Z,15.55
2018-09-25T14:18:07.223Z,15.53
2018-09-25T14:20:40.942Z,15.56
2018-09-25T14:23:14.623Z,15.62
2018-09-25T14:25:48.350Z,15.90
2018-09-25T14:28:22.039Z,15.74
2018-09-25T14:30:55.751Z,15.65
2018-09-25T14:33:29.546Z,15.64
2018-09-25T14:36:03.179Z,15.98
2018-09-25T14:38:36.971Z,15.66
2018-09-25T14:41:11.110Z,15.69
2018-09-25T14:43:46.651Z,15.37
2018-09-25T14:46:22.934Z,15.65
2018-09-25T14:48:57.909Z,15.51
2018-09-25T14:51:34.587Z,15.70
2018-09-25T14:54:09.095Z,15.83
2018-09-25T14:56:42.974Z,15.58
2018-09-25T14:59:16.687Z,15.57
2018-09-25T15:01:51.003Z,15.67
2018-09-25T15:04:25.217Z,15.65
2018-09-25T15:06:59.083Z,15.66
2018-09-25T15:09:32.735Z,15.61
2018-09-25T15:12:06.591Z,15.76
2018-09-25T15:14:40.340Z,15.66
2018-09-25T15:17:14.243Z,15.64
2018-09-25T15:19:47.998Z,15.65
2018-09-25T15:22:21.859Z,15.65
2018-09-25T15:24:55.319Z,15.44
2018-09-25T15:27:29.071Z,15.23
2018-09-25T15:30:02.740Z,15.37
2018-09-25T15:32:36.666Z,15.51
2018-09-25T15:35:10.570Z,15.25
2018-09-25T15:37:44.303Z,15.19
2018-09-25T15:40:18.001Z,15.22
2018-09-25T15:42:51.767Z,15.20
2018-09-25T15:45:25.562Z,15.27
2018-09-25T15:47:59.384Z,15.32
2018-09-25T15:50:33.114Z,15.33
2018-09-25T15:53:06.776Z,15.14
2018-09-25T15:55:40.471Z,15.09
2018-09-25T15:58:14.371Z,15.18
2018-09-25T16:00:48.352Z,15.14
2018-09-25T16:03:22.202Z,15.09
2018-09-25T16:05:55.943Z,15.09
2018-09-25T16:08:29.699Z,15.02
2018-09-25T16:11:03.418Z,15.02
2018-09-25T16:13:37.415Z,14.93
2018-09-25T16:16:11.120Z,14.97
2018-09-25T16:18:45.067Z,14.96
2018-09-25T16:21:18.755Z,15.01
2018-09-25T16:23:52.571Z,14.92
2018-09-25T16:26:26.394Z,14.83
2018-09-25T16:29:00.426Z,14.80
2018-09-25T16:31:33.978Z,14.69
2018-09-25T16:34:07.666Z,14.69
2018-09-25T16:36:41.487Z,14.68
2018-09-25T16:39:15.619Z,14.76
2018-09-25T16:41:49.495Z,14.59
2018-09-25T16:44:23.195Z,14.57
2018-09-25T16:46:57.011Z,14.49
2018-09-25T16:49:30.799Z,14.58
2018-09-25T16:52:04.584Z,14.38
2018-09-25T16:54:38.220Z,14.27
2018-09-25T16:57:11.918Z,14.11
2018-09-25T16:59:45.693Z,14.01
2018-09-25T17:02:19.534Z,13.78
2018-09-25T17:04:53.127Z,13.44
2018-09-25T17:07:26.987Z,13.34
2018-09-25T17:10:00.822Z,13.34
2018-09-25T17:12:34.447Z,13.01
2018-09-25T17:15:08.351Z,12.93
2018-09-25T17:17:41.950Z,12.73
2018-09-25T17:20:15.800Z,12.39
2018-09-25T17:22:49.519Z,12.34
2018-09-25T17:25:23.423Z,12.19
2018-09-25T17:27:57.236Z,12.03
2018-09-25T17:30:31.363Z,11.96
2018-09-25T17:33:05.262Z,11.90
2018-09-25T17:35:39.051Z,11.58
2018-09-25T17:38:12.842Z,11.54
2018-09-25T17:40:46.775Z,11.57
2018-09-25T17:43:20.439Z,11.40
2018-09-25T17:45:54.210Z,11.17
2018-09-25T17:48:27.978Z,11.12
2018-09-25T17:51:01.615Z,10.87
2018-09-25T17:53:35.404Z,10.73
2018-09-25T17:56:09.209Z,10.62
2018-09-25T17:58:43.059Z,11.16
2018-09-25T18:01:16.794Z,11.33
2018-09-25T18:03:50.276Z,11.03
2018-09-25T18:06:24.316Z,10.58
2018-09-25T18:08:58.134Z,10.54
2018-09-25T18:11:32.111Z,10.52
2018-09-25T18:14:05.847Z,10.60
2018-09-25T18:16:41.220Z,10.53
2018-09-25T18:19:14.880Z,10.32
2018-09-25T18:21:48.543Z,10.06
2018-09-25T18:24:22.233Z,10.14
2018-09-25T18:26:56.259Z,9.94
2018-09-25T18:29:30.032Z,10.13
2018-09-25T18:32:03.731Z,10.01
2018-09-25T18:34:37.339Z,10.07
2018-09-25T18:37:11.146Z,10.05
2018-09-25T18:39:44.790Z,10.14
2018-09-25T18:42:18.437Z,9.89
2018-09-25T18:44:52.303Z,10.00
2018-09-25T18:47:26.043Z,10.13
2018-09-25T18:50:00.132Z,10.03
2018-09-25T18:52:33.727Z,9.92
2018-09-25T18:55:07.383Z,9.65
2018-09-25T18:57:41.145Z,9.62
2018-09-25T19:00:14.803Z,9.54
2018-09-25T19:02:48.451Z,9.26
2018-09-25T19:05:22.337Z,9.22
2018-09-25T19:07:56.095Z,9.41
2018-09-25T19:10:29.890Z,9.27
2018-09-25T19:13:03.486Z,9.20
2018-09-25T19:15:37.303Z,9.29
2018-09-25T19:18:11.203Z,9.27
2018-09-25T19:20:45.018Z,9.33
2018-09-25T19:23:18.947Z,9.22
2018-09-25T19:25:52.767Z,9.29
2018-09-25T19:28:26.731Z,9.16
2018-09-25T19:31:00.649Z,9.24
2018-09-25T19:33:34.510Z,9.28
2018-09-25T19:36:08.394Z,9.19
2018-09-25T19:38:43.059Z,9.38
2018-09-25T19:41:16.737Z,9.30
2018-09-25T19:43:50.443Z,9.39
2018-09-25T19:46:24.423Z,9.49
2018-09-25T19:48:58.214Z,9.49
2018-09-25T19:51:31.974Z,9.33
2018-09-25T19:54:05.741Z,9.41
2018-09-25T19:56:39.554Z,9.26
2018-09-25T19:59:13.317Z,9.26
2018-09-25T20:01:47.104Z,9.17
2018-09-25T20:04:21.516Z,9.20
2018-09-25T20:06:55.331Z,9.08
2018-09-25T20:09:29.159Z,9.00
2018-09-25T20:12:02.674Z,9.13
2018-09-25T20:14:36.414Z,8.92
2018-09-25T20:17:10.188Z,9.08
2018-09-25T20:19:44.128Z,8.89
2018-09-25T20:22:17.859Z,8.79
2018-09-25T20:24:51.644Z,8.71
2018-09-25T20:27:25.500Z,8.49
2018-09-25T20:29:59.341Z,8.61
2018-09-25T20:32:33.162Z,8.43
2018-09-25T20:35:07.063Z,8.40
2018-09-25T20:37:40.880Z,8.22
2018-09-25T20:40:14.544Z,8.17
2018-09-25T20:42:48.325Z,8.14
2018-09-25T20:45:22.631Z,8.18
2018-09-25T20:47:56.395Z,8.13
2018-09-25T20:50:30.375Z,8.10
2018-09-25T20:53:04.041Z,7.81
2018-09-25T20:55:37.799Z,7.96
2018-09-25T20:58:11.511Z,7.75
2018-09-25T21:00:52.435Z,7.79
2018-09-25T21:03:26.111Z,7.42
2018-09-25T21:05:59.981Z,7.47
2018-09-25T21:08:33.846Z,7.41
2018-09-25T21:11:07.883Z,7.33
2018-09-25T21:13:41.621Z,7.38
2018-09-25T21:16:15.627Z,7.22
2018-09-25T21:18:49.363Z,7.10
2018-09-25T21:21:23.250Z,6.92
2018-09-25T21:23:56.898Z,6.84
2018-09-25T21:26:30.835Z,6.80
2018-09-25T21:29:04.611Z,6.81
2018-09-25T21:31:38.443Z,6.66
2018-09-25T21:34:12.278Z,6.76
2018-09-25T21:36:46.127Z,6.51
2018-09-25T21:39:19.915Z,6.49
2018-09-25T21:41:53.622Z,6.55
2018-09-25T21:44:27.302Z,6.42
2018-09-25T21:47:01.258Z,6.57
2018-09-25T21:49:35.088Z,6.87
2018-09-25T21:52:09.012Z,6.68
2018-09-25T21:54:42.682Z,6.90
2018-09-25T21:57:16.814Z,6.78
2018-09-25T21:59:50.370Z,6.50
2018-09-25T22:02:24.260Z,6.49
2018-09-25T22:04:57.979Z,6.49
2018-09-25T22:07:31.747Z,6.41
2018-09-25T22:10:05.554Z,6.36
2018-09-25T22:12:39.335Z,6.43
2018-09-25T22:15:13.139Z,6.41
2018-09-25T22:17:46.986Z,6.27
2018-09-25T22:20:20.602Z,6.42
2018-09-25T22:22:54.321Z,6.18
2018-09-25T22:25:28.118Z,6.23
2018-09-25T22:28:01.906Z,6.08
2018-09-25T22:30:35.581Z,6.01
2018-09-25T22:33:09.319Z,5.85
2018-09-25T22:35:43.088Z,6.05
2018-09-25T22:38:17.010Z,6.06
2018-09-25T22:40:50.714Z,5.97
2018-09-25T22:43:24.319Z,6.09
2018-09-25T22:45:58.477Z,5.84
2018-09-25T22:48:32.251Z,5.80
2018-09-25T22:51:05.958Z,5.82
2018-09-25T22:53:39.828Z,5.65
2018-09-25T22:56:13.507Z,5.53
2018-09-25T22:58:47.166Z,5.39
2018-09-25T23:01:20.991Z,5.46
2018-09-25T23:03:54.997Z,5.53
2018-09-25T23:06:28.771Z,5.68
2018-09-25T23:09:02.516Z,5.50
2018-09-25T23:11:36.343Z,5.20
2018-09-25T23:14:10.069Z,5.16
2018-09-25T23:16:43.878Z,5.38
2018-09-25T23:19:17.507Z,5.44
2018-09-25T23:21:51.270Z,5.38
2018-09-25T23:24:25.072Z,5.30
2018-09-25T23:26:58.855Z,5.37
2018-09-25T23:29:32.834Z,5.29
2018-09-25T23:32:06.586Z,5.35
2018-09-25T23:34:40.306Z,5.23
2018-09-25T23:37:14.122Z,5.23
2018-09-25T23:39:49.682Z,4.94
2018-09-25T23:42:23.430Z,4.91
2018-09-25T23:44:56.315Z,4.98
2018-09-25T23:48:32.814Z,5.04
2018-09-25T23:51:14.710Z,5.00
2018-09-25T23:53:47.282Z,4.99
2018-09-25T23:56:30.019Z,4.86
2018-09-25T23:59:03.445Z,4.99
